Time;durP1;ratioP1;P1;durP2;ratioP2;P2;SDS_P1;SDS_P2;PMS_P1;PMS_P2;Temp;Humidity;BMP_temperature;BMP_pressure;BME280_temperature;BME280_humidity;BME280_pressure;Samples;Min_cycle;Max_cycle;Signal;HPM_P1;HPM_P2
2021/04/23 00:00:25;;;;;;;12.30;3.83;;;6.40;99.90;;;;;;5045752;28;20086;-66
2021/04/23 00:02:54;;;;;;;15.77;4.10;;;6.50;99.90;;;;;;5049171;28;21103;-67
2021/04/23 00:05:21;;;;;;;15.57;4.43;;;6.40;99.90;;;;;;5047047;28;20524;-66
2021/04/23 00:07:47;;;;;;;14.97;4.37;;;6.40;99.90;;;;;;5046963;28;20129;-66
2021/04/23 00:10:14;;;;;;;;;;;6.50;99.90;;;;;;5050199;28;20072;-66
2021/04/23 00:12:41;;;;;;;10.68;3.88;;;6.50;99.90;;;;;;5049723;28;19984;-66
2021/04/23 00:15:12;;;;;;;20.27;4.63;;;6.40;99.90;;;;;;5046233;28;20064;-66
2021/04/23 00:17:40;;;;;;;13.37;4.43;;;6.20;99.90;;;;;;5047428;28;20088;-66
2021/04/23 00:20:10;;;;;;;15.23;4.67;;;6.20;99.90;;;;;;5049452;28;20137;-67
2021/04/23 00:22:37;;;;;;;13.13;5.53;;;6.00;99.90;;;;;;5046540;28;20049;-66
2021/04/23 00:25:05;;;;;;;13.90;4.37;;;6.00;99.90;;;;;;5049317;28;20044;-66
2021/04/23 00:27:32;;;;;;;14.53;4.50;;;5.90;99.90;;;;;;5046899;28;20045;-66
2021/04/23 00:30:00;;;;;;;11.70;4.50;;;5.80;99.90;;;;;;5050232;28;20452;-67
2021/04/23 00:35:14;;;;;;;19.57;5.63;;;6.10;99.90;;;;;;5044582;28;20133;-66
2021/04/23 00:37:46;;;;;;;20.20;5.10;;;6.10;99.90;;;;;;5048919;28;20493;-66
2021/04/23 00:40:16;;;;;;;15.27;5.13;;;6.00;99.90;;;;;;5049089;28;20059;-66
2021/04/23 00:42:42;;;;;;;15.60;5.30;;;6.00;99.90;;;;;;5048152;28;20127;-66
2021/04/23 00:45:11;;;;;;;21.63;5.33;;;6.00;99.90;;;;;;5045651;28;20090;-66
2021/04/23 00:47:38;;;;;;;17.33;5.30;;;5.90;99.90;;;;;;5045590;28;20103;-66
2021/04/23 00:50:06;;;;;;;16.13;5.03;;;5.70;99.90;;;;;;5046955;28;20048;-66
2021/04/23 00:52:34;;;;;;;17.00;5.23;;;5.60;99.90;;;;;;5048303;28;20052;-66
2021/04/23 00:55:00;;;;;;;15.77;5.07;;;5.50;99.90;;;;;;5042026;28;20158;-66
2021/04/23 00:57:27;;;;;;;15.73;4.93;;;5.40;99.90;;;;;;5044368;28;20517;-66
2021/04/23 00:59:53;;;;;;;13.03;4.67;;;5.50;99.90;;;;;;5044241;28;20063;-66
2021/04/23 01:02:20;;;;;;;15.60;4.97;;;5.50;99.90;;;;;;5048389;28;20048;-66
2021/04/23 01:04:48;;;;;;;17.30;5.20;;;5.40;99.90;;;;;;5045905;28;20076;-66
2021/04/23 01:07:15;;;;;;;17.97;5.00;;;5.50;99.90;;;;;;5046487;28;20048;-66
2021/04/23 01:09:43;;;;;;;15.07;4.80;;;5.70;99.90;;;;;;5046986;28;20156;-66
2021/04/23 01:12:10;;;;;;;18.20;5.07;;;5.60;99.90;;;;;;5046169;28;20465;-66
2021/04/23 01:14:37;;;;;;;17.27;5.40;;;5.40;99.90;;;;;;5049964;28;20052;-66
2021/04/23 01:17:04;;;;;;;22.67;5.73;;;5.30;99.90;;;;;;5046726;28;20048;-66
2021/04/23 01:19:32;;;;;;;16.77;5.30;;;5.30;99.90;;;;;;5049763;28;20048;-66
2021/04/23 01:22:00;;;;;;;11.57;4.90;;;5.20;99.90;;;;;;5047052;28;20117;-66
2021/04/23 01:24:27;;;;;;;13.30;5.03;;;5.30;99.90;;;;;;5046752;28;20058;-66
2021/04/23 01:26:56;;;;;;;14.67;5.77;;;5.40;99.90;;;;;;5049721;28;20501;-66
2021/04/23 01:29:25;;;;;;;15.13;5.73;;;5.30;99.90;;;;;;5044550;28;20139;-66
2021/04/23 01:31:53;;;;;;;17.07;4.77;;;5.20;99.90;;;;;;5049427;28;20220;-66
2021/04/23 01:34:23;;;;;;;17.97;5.83;;;5.10;99.90;;;;;;5048531;28;20052;-66
2021/04/23 01:36:51;;;;;;;18.53;5.57;;;5.10;99.90;;;;;;5049492;28;20053;-66
2021/04/23 01:39:22;;;;;;;12.90;5.03;;;5.00;99.90;;;;;;5046885;28;20074;-66
2021/04/23 01:41:49;;;;;;;12.00;5.27;;;5.00;99.90;;;;;;5046279;28;20063;-66
2021/04/23 01:44:16;;;;;;;15.50;5.47;;;4.90;99.90;;;;;;5049409;28;20056;-66
2021/04/23 01:46:43;;;;;;;14.97;6.20;;;4.80;99.90;;;;;;5048154;28;20044;-66
2021/04/23 01:49:12;;;;;;;15.87;5.50;;;4.90;99.90;;;;;;5044445;28;20067;-66
2021/04/23 01:51:41;;;;;;;11.47;5.13;;;4.80;99.90;;;;;;5046909;28;20102;-66
2021/04/23 01:54:09;;;;;;;19.77;6.53;;;4.90;99.90;;;;;;5047532;28;20055;-66
2021/04/23 01:56:37;;;;;;;19.57;5.80;;;4.80;99.90;;;;;;5045812;28;20060;-66
2021/04/23 01:59:05;;;;;;;14.07;5.30;;;4.80;99.90;;;;;;5043936;28;20099;-66
2021/04/23 02:01:32;;;;;;;13.33;4.67;;;4.90;99.90;;;;;;5046275;28;20092;-66
2021/04/23 02:03:59;;;;;;;20.37;6.13;;;4.90;99.90;;;;;;5046265;28;20048;-66
2021/04/23 02:06:26;;;;;;;19.13;5.37;;;5.00;99.90;;;;;;5048072;28;20052;-66
2021/04/23 02:08:54;;;;;;;18.87;5.43;;;4.90;99.90;;;;;;5046284;28;20134;-66
2021/04/23 02:11:21;;;;;;;16.83;5.13;;;4.80;99.90;;;;;;5048255;28;20159;-67
2021/04/23 02:13:51;;;;;;;17.13;4.70;;;4.80;99.90;;;;;;5047309;28;20592;-66
2021/04/23 02:16:19;;;;;;;15.43;5.67;;;4.90;99.90;;;;;;5047065;28;20056;-66
2021/04/23 02:18:47;;;;;;;20.57;5.13;;;4.80;99.90;;;;;;5050604;28;20088;-66
2021/04/23 02:21:14;;;;;;;15.20;5.07;;;4.80;99.90;;;;;;5048223;28;20049;-66
2021/04/23 02:23:42;;;;;;;21.10;5.50;;;4.60;99.90;;;;;;5050179;28;20076;-66
2021/04/23 02:26:09;;;;;;;13.80;4.23;;;4.50;99.90;;;;;;5050157;28;20056;-66
2021/04/23 02:28:36;;;;;;;18.03;5.70;;;4.40;99.90;;;;;;5048435;28;20588;-66
2021/04/23 02:31:07;;;;;;;15.67;6.07;;;4.40;99.90;;;;;;5048525;28;20083;-66
2021/04/23 02:33:33;;;;;;;19.93;5.00;;;4.40;99.90;;;;;;5047460;28;20054;-66
2021/04/23 02:36:00;;;;;;;19.53;6.70;;;4.40;99.90;;;;;;5051824;28;20098;-66
2021/04/23 02:38:28;;;;;;;17.47;5.83;;;4.50;99.90;;;;;;5048096;28;20055;-66
2021/04/23 02:40:56;;;;;;;16.57;5.20;;;4.50;99.90;;;;;;5050745;28;20056;-66
2021/04/23 02:43:27;;;;;;;16.80;6.07;;;4.50;99.90;;;;;;5050675;28;20060;-66
2021/04/23 02:45:55;;;;;;;16.57;6.03;;;4.50;99.90;;;;;;5048207;28;20083;-66
2021/04/23 02:48:25;;;;;;;14.80;5.93;;;4.40;99.90;;;;;;5053195;28;20088;-66
2021/04/23 02:51:01;;;;;;;12.97;4.20;;;4.30;99.90;;;;;;5050802;28;20091;-66
2021/04/23 02:53:28;;;;;;;14.35;4.20;;;4.30;99.90;;;;;;5052095;28;20090;-66
2021/04/23 02:55:55;;;;;;;18.87;5.43;;;4.20;99.90;;;;;;5049871;28;20087;-66
2021/04/23 02:58:22;;;;;;;15.30;4.97;;;4.10;99.90;;;;;;5048470;28;20098;-66
2021/04/23 03:00:52;;;;;;;18.10;5.20;;;4.00;99.90;;;;;;5050279;28;20751;-66
2021/04/23 03:03:19;;;;;;;16.10;5.40;;;4.00;99.90;;;;;;5051839;28;20051;-66
2021/04/23 03:05:48;;;;;;;15.87;5.60;;;4.10;99.90;;;;;;5051905;28;20103;-66
2021/04/23 03:08:16;;;;;;;18.03;4.83;;;4.20;99.90;;;;;;5049468;28;20080;-66
2021/04/23 03:10:45;;;;;;;16.07;5.23;;;4.20;99.90;;;;;;5051850;28;20079;-66
2021/04/23 03:13:15;;;;;;;12.30;4.97;;;4.30;99.90;;;;;;5050735;28;20549;-66
2021/04/23 03:15:42;;;;;;;14.00;4.97;;;4.30;99.90;;;;;;5050466;28;20562;-66
2021/04/23 03:18:13;;;;;;;16.97;6.50;;;4.10;99.90;;;;;;5051101;28;20056;-66
2021/04/23 03:20:40;;;;;;;20.73;5.57;;;4.00;99.90;;;;;;5050308;28;20080;-66
2021/04/23 03:23:08;;;;;;;19.07;5.80;;;4.00;99.90;;;;;;5052221;28;20094;-66
2021/04/23 03:25:35;;;;;;;18.33;5.93;;;3.90;99.90;;;;;;5051497;28;20084;-65
2021/04/23 03:28:01;;;;;;;16.27;5.43;;;3.90;99.90;;;;;;5048749;28;20109;-66
2021/04/23 03:30:32;;;;;;;23.70;5.90;;;3.70;99.90;;;;;;5047920;28;20136;-66
2021/04/23 03:32:59;;;;;;;21.40;6.30;;;3.60;99.90;;;;;;5050020;28;20580;-66
2021/04/23 03:35:26;;;;;;;19.57;5.93;;;3.60;99.90;;;;;;5049867;28;20083;-66
2021/04/23 03:37:53;;;;;;;14.57;5.50;;;3.60;99.90;;;;;;5051769;28;20045;-66
2021/04/23 03:40:23;;;;;;;16.10;5.50;;;3.70;99.90;;;;;;5051449;28;20103;-66
2021/04/23 03:42:50;;;;;;;28.93;6.17;;;3.60;99.90;;;;;;5048210;28;20086;-66
2021/04/23 03:45:19;;;;;;;15.27;5.73;;;3.60;99.90;;;;;;5048879;28;20088;-66
2021/04/23 03:47:47;;;;;;;13.93;5.67;;;3.50;99.90;;;;;;5051193;28;20083;-66
2021/04/23 03:50:16;;;;;;;14.97;4.77;;;3.40;99.90;;;;;;5048286;28;20048;-66
2021/04/23 03:52:43;;;;;;;15.23;5.13;;;3.30;99.90;;;;;;5048820;28;20052;-66
2021/04/23 03:55:14;;;;;;;17.67;5.57;;;3.30;99.90;;;;;;5047705;28;20496;-66
2021/04/23 03:57:41;;;;;;;16.50;4.97;;;3.40;99.90;;;;;;5047273;28;20079;-66
2021/04/23 04:00:11;;;;;;;14.50;5.60;;;3.40;99.90;;;;;;5049693;28;20080;-66
2021/04/23 04:02:38;;;;;;;19.10;5.23;;;3.30;99.90;;;;;;5052783;28;20673;-66
2021/04/23 04:05:06;;;;;;;17.70;5.37;;;3.30;99.90;;;;;;5050814;28;20083;-66
2021/04/23 04:07:33;;;;;;;12.77;5.10;;;3.30;99.90;;;;;;5045090;28;20123;-66
2021/04/23 04:10:00;;;;;;;17.67;5.40;;;3.30;99.90;;;;;;5047633;28;20080;-66
2021/04/23 04:12:26;;;;;;;14.13;5.63;;;3.10;99.90;;;;;;5047753;28;20058;-66
2021/04/23 04:14:54;;;;;;;15.67;5.20;;;3.20;99.90;;;;;;5049068;28;20509;-66
2021/04/23 04:17:20;;;;;;;14.47;5.13;;;3.10;99.90;;;;;;5045722;28;20060;-66
2021/04/23 04:19:47;;;;;;;19.07;5.40;;;3.10;99.90;;;;;;5049440;28;20055;-66
2021/04/23 04:22:13;;;;;;;16.80;4.67;;;3.10;99.90;;;;;;5048360;28;20052;-66
2021/04/23 04:24:40;;;;;;;14.13;5.47;;;3.20;99.90;;;;;;5048716;28;20084;-66
2021/04/23 04:27:07;;;;;;;22.17;5.87;;;3.10;99.90;;;;;;5045505;28;20098;-66
2021/04/23 04:29:33;;;;;;;18.13;6.03;;;3.20;99.90;;;;;;5049918;28;20610;-66
2021/04/23 04:32:00;;;;;;;19.17;5.97;;;3.10;99.90;;;;;;5046798;28;20112;-66
2021/04/23 04:34:27;;;;;;;20.20;5.90;;;3.10;99.90;;;;;;5050070;28;20455;-66
2021/04/23 04:36:54;;;;;;;19.40;5.17;;;3.20;99.90;;;;;;5048378;28;20721;-66
2021/04/23 04:39:20;;;;;;;16.10;5.93;;;3.30;99.90;;;;;;5042893;28;20079;-66
2021/04/23 04:41:47;;;;;;;22.33;5.67;;;3.40;99.90;;;;;;5047124;28;20040;-66
2021/04/23 04:44:13;;;;;;;17.30;5.43;;;3.40;99.90;;;;;;5049810;28;20174;-66
2021/04/23 04:46:40;;;;;;;17.70;5.83;;;3.50;99.90;;;;;;5045708;28;20052;-66
2021/04/23 04:49:07;;;;;;;18.17;6.70;;;3.50;99.90;;;;;;5046351;28;20097;-66
2021/04/23 04:51:34;;;;;;;20.27;6.17;;;3.50;99.90;;;;;;5045184;28;20072;-66
2021/04/23 04:54:00;;;;;;;24.03;6.30;;;3.60;99.90;;;;;;5048324;28;20051;-66
2021/04/23 04:56:27;;;;;;;18.03;6.53;;;3.60;99.90;;;;;;5046052;28;20047;-66
2021/04/23 04:58:53;;;;;;;20.53;6.67;;;3.60;99.90;;;;;;5048559;28;20253;-66
2021/04/23 05:01:20;;;;;;;19.50;7.20;;;3.70;99.90;;;;;;5047688;28;20079;-66
2021/04/23 05:03:46;;;;;;;19.43;6.40;;;3.70;99.90;;;;;;5047223;28;20175;-66
2021/04/23 05:06:14;;;;;;;22.67;5.97;;;3.80;99.90;;;;;;5043027;28;20106;-66
2021/04/23 05:08:41;;;;;;;22.73;6.53;;;3.80;99.90;;;;;;5046122;28;20055;-66
2021/04/23 05:11:08;;;;;;;23.70;6.47;;;3.80;99.90;;;;;;5045878;28;20083;-66
2021/04/23 05:13:34;;;;;;;16.60;6.00;;;3.90;99.90;;;;;;5047303;28;20080;-66
2021/04/23 05:16:01;;;;;;;24.80;6.63;;;3.80;99.90;;;;;;5047756;28;20048;-66
2021/04/23 05:18:27;;;;;;;25.97;7.10;;;3.90;99.90;;;;;;5044901;28;20159;-66
2021/04/23 05:20:54;;;;;;;21.73;7.30;;;3.80;99.90;;;;;;5050347;28;20083;-66
2021/04/23 05:23:21;;;;;;;27.07;6.83;;;3.90;99.90;;;;;;5046641;28;20090;-66
2021/04/23 05:25:48;;;;;;;22.30;6.30;;;3.90;99.90;;;;;;5048610;28;20052;-66
2021/04/23 05:28:14;;;;;;;25.90;6.60;;;3.90;99.90;;;;;;5045811;28;20125;-66
2021/04/23 05:30:41;;;;;;;20.90;5.63;;;4.10;99.90;;;;;;5046363;28;20655;-66
2021/04/23 05:33:10;;;;;;;18.70;6.03;;;4.10;99.90;;;;;;5046595;28;20131;-66
2021/04/23 05:35:38;;;;;;;22.93;6.40;;;4.10;99.90;;;;;;5045362;28;20087;-66
2021/04/23 05:38:05;;;;;;;19.97;6.97;;;4.10;99.90;;;;;;5054569;28;20141;-66
2021/04/23 05:40:34;;;;;;;22.23;6.40;;;4.10;99.90;;;;;;5057593;28;20139;-66
2021/04/23 05:43:01;;;;;;;16.87;6.50;;;4.10;99.90;;;;;;5056231;28;20463;-66
2021/04/23 05:45:28;;;;;;;17.73;6.10;;;4.20;99.90;;;;;;5053053;28;20118;-67
2021/04/23 05:47:55;;;;;;;18.80;6.40;;;4.20;99.90;;;;;;5057917;28;20352;-66
2021/04/23 05:50:22;;;;;;;17.43;6.33;;;4.20;99.90;;;;;;5060551;28;20087;-66
2021/04/23 05:52:50;;;;;;;23.57;8.60;;;4.30;99.90;;;;;;5060950;28;20132;-68
2021/04/23 05:55:19;;;;;;;20.20;6.97;;;4.20;99.90;;;;;;5064033;28;20063;-67
2021/04/23 05:57:47;;;;;;;17.23;6.37;;;4.30;99.90;;;;;;5048032;28;20048;-68
2021/04/23 06:00:19;;;;;;;18.27;5.13;;;4.40;99.90;;;;;;5048460;28;20141;-68
2021/04/23 06:02:46;;;;;;;17.00;6.27;;;4.50;99.90;;;;;;5046662;28;20052;-68
2021/04/23 06:05:15;;;;;;;20.70;6.37;;;4.40;99.90;;;;;;5048393;28;20127;-68
2021/04/23 06:07:43;;;;;;;18.43;6.13;;;4.40;99.90;;;;;;5044848;28;20136;-69
2021/04/23 06:10:11;;;;;;;20.77;6.20;;;4.60;99.90;;;;;;5043751;28;20052;-68
2021/04/23 06:12:38;;;;;;;20.53;6.97;;;4.70;99.90;;;;;;5048734;28;20047;-68
2021/04/23 06:15:08;;;;;;;19.67;6.53;;;4.80;99.90;;;;;;5049153;28;20066;-68
2021/04/23 06:17:36;;;;;;;19.10;6.00;;;4.90;99.90;;;;;;5050121;28;20449;-67
2021/04/23 06:20:05;;;;;;;23.87;7.33;;;4.70;99.90;;;;;;5051083;28;20083;-67
2021/04/23 06:22:32;;;;;;;21.40;6.10;;;4.90;99.90;;;;;;5053274;28;20203;-67
2021/04/23 06:24:58;;;;;;;21.00;6.60;;;5.00;99.90;;;;;;5051708;28;20564;-67
2021/04/23 06:27:25;;;;;;;;;;;5.00;99.90;;;;;;5052631;28;20480;-67
2021/04/23 06:29:52;;;;;;;22.10;7.27;;;5.10;99.90;;;;;;5049207;28;19924;-67
2021/04/23 06:32:19;;;;;;;40.70;9.33;;;5.10;99.90;;;;;;5051695;28;20519;-67
2021/04/23 06:34:46;;;;;;;17.87;6.83;;;5.20;99.90;;;;;;5055609;28;20045;-67
2021/04/23 06:37:13;;;;;;;25.57;7.10;;;5.30;99.90;;;;;;5056204;28;20500;-68
2021/04/23 06:39:39;;;;;;;;;;;5.50;99.90;;;;;;5056395;28;20563;-68
2021/04/23 06:42:06;;;;;;;21.33;7.43;;;5.60;99.90;;;;;;5057277;28;19924;-68
2021/04/23 06:44:33;;;;;;;27.13;7.87;;;5.60;99.90;;;;;;5057624;28;20513;-68
2021/04/23 06:46:59;;;;;;;25.80;7.33;;;5.80;99.90;;;;;;5057389;28;20048;-68
2021/04/23 06:49:27;;;;;;;23.73;7.93;;;6.00;99.90;;;;;;5058661;28;20044;-68
2021/04/23 06:51:53;;;;;;;36.97;9.73;;;6.00;99.90;;;;;;5057547;28;20048;-68
2021/04/23 06:54:20;;;;;;;20.23;7.67;;;6.20;99.90;;;;;;5058083;28;20425;-68
2021/04/23 06:56:46;;;;;;;23.87;8.20;;;6.30;99.90;;;;;;5058004;28;20052;-68
2021/04/23 06:59:12;;;;;;;;;;;6.50;99.90;;;;;;5057948;28;20083;-68
2021/04/23 07:01:39;;;;;;;24.23;6.80;;;6.60;99.90;;;;;;5058872;28;20303;-68
2021/04/23 07:04:06;;;;;;;15.63;5.83;;;6.70;99.90;;;;;;5058093;28;20052;-68
2021/04/23 07:06:38;;;;;;;21.97;6.47;;;6.80;99.90;;;;;;5059864;28;20636;-68
2021/04/23 07:09:06;;;;;;;25.77;6.50;;;6.90;99.90;;;;;;5055991;28;20048;-68
2021/04/23 07:11:32;;;;;;;22.73;6.90;;;6.90;99.90;;;;;;5060475;28;20055;-68
2021/04/23 07:13:58;;;;;;;;;;;7.10;99.90;;;;;;5060755;28;20086;-68
2021/04/23 07:16:25;;;;;;;20.00;6.13;;;7.20;99.90;;;;;;5058550;28;19959;-68
2021/04/23 07:18:55;;;;;;;27.80;6.87;;;7.30;99.90;;;;;;5062378;28;20091;-69
2021/04/23 07:21:21;;;;;;;26.13;7.70;;;7.40;99.90;;;;;;5056547;28;20075;-67
2021/04/23 07:23:49;;;;;;;22.80;6.50;;;7.40;99.90;;;;;;5058064;28;20055;-67
2021/04/23 07:26:16;;;;;;;17.73;6.80;;;7.50;99.90;;;;;;5056581;28;20067;-67
2021/04/23 07:28:42;;;;;;;20.98;6.60;;;7.80;99.90;;;;;;5055178;28;20127;-67
2021/04/23 07:31:09;;;;;;;22.37;7.03;;;7.90;99.90;;;;;;5058594;28;20099;-67
2021/04/23 07:33:35;;;;;;;;;;;8.00;99.90;;;;;;5059041;28;20886;-67
2021/04/23 07:36:02;;;;;;;19.20;6.13;;;8.20;99.90;;;;;;5056284;28;19989;-68
2021/04/23 07:38:30;;;;;;;20.20;6.07;;;8.20;99.90;;;;;;5056221;28;20048;-67
2021/04/23 07:40:57;;;;;;;18.35;6.15;;;8.50;99.90;;;;;;5056684;28;20094;-68
2021/04/23 07:43:24;;;;;;;15.95;5.53;;;8.70;99.90;;;;;;5054293;28;20079;-67
2021/04/23 07:45:52;;;;;;;16.30;5.07;;;8.80;99.90;;;;;;5053805;28;20126;-67
2021/04/23 07:48:19;;;;;;;21.45;6.45;;;9.00;99.90;;;;;;5051435;28;20055;-67
2021/04/23 07:50:45;;;;;;;14.57;5.85;;;9.10;99.90;;;;;;5055052;28;20500;-67
2021/04/23 07:53:12;;;;;;;19.40;6.07;;;9.30;99.90;;;;;;5055147;28;20171;-68
2021/04/23 07:55:39;;;;;;;20.88;5.72;;;9.50;99.90;;;;;;5055349;28;21400;-67
2021/04/23 07:58:06;;;;;;;18.23;5.40;;;9.70;99.90;;;;;;5056423;28;20578;-67
2021/04/23 08:00:33;;;;;;;16.75;5.18;;;9.90;99.90;;;;;;5054267;28;20103;-68
2021/04/23 08:02:59;;;;;;;20.10;5.68;;;10.10;99.90;;;;;;5053936;28;20091;-68
2021/04/23 08:05:26;;;;;;;;;;;10.30;99.90;;;;;;5056934;28;20048;-68
2021/04/23 08:07:52;;;;;;;16.33;5.40;;;10.40;99.90;;;;;;5054517;28;19924;-68
2021/04/23 08:10:20;;;;;;;;;;;10.50;99.90;;;;;;5054912;28;20049;-68
2021/04/23 08:12:47;;;;;;;15.02;4.93;;;10.60;99.90;;;;;;5056523;28;19947;-67
2021/04/23 08:15:16;;;;;;;16.27;5.20;;;10.80;99.90;;;;;;5050459;28;20134;-68
2021/04/23 08:17:43;;;;;;;17.48;5.47;;;11.00;99.90;;;;;;5055726;28;20050;-68
2021/04/23 08:20:11;;;;;;;23.10;5.50;;;11.00;99.90;;;;;;5055584;28;20063;-68
2021/04/23 08:22:38;;;;;;;18.48;6.00;;;11.20;99.90;;;;;;5051290;28;20047;-68
2021/04/23 08:25:06;;;;;;;16.70;5.18;;;11.50;99.90;;;;;;5055830;28;20678;-67
2021/04/23 08:27:33;;;;;;;15.55;5.63;;;11.90;99.90;;;;;;5055979;28;20075;-68
2021/04/23 08:30:00;;;;;;;14.60;5.63;;;12.30;99.90;;;;;;5050900;28;20130;-68
2021/04/23 08:32:27;;;;;;;16.60;5.85;;;12.60;99.90;;;;;;5052372;28;20051;-68
2021/04/23 08:34:53;;;;;;;13.30;4.63;;;12.90;99.90;;;;;;5052950;28;20084;-68
2021/04/23 08:37:20;;;;;;;15.65;5.40;;;13.60;99.90;;;;;;5053976;28;20141;-68
2021/04/23 08:39:46;;;;;;;;;;;14.70;99.90;;;;;;5056711;28;20052;-68
2021/04/23 08:42:13;;;;;;;14.27;5.93;;;15.60;99.90;;;;;;5052835;28;19930;-68
2021/04/23 08:44:39;;;;;;;17.35;6.10;;;16.50;97.80;;;;;;5054787;28;21350;-68
2021/04/23 08:47:06;;;;;;;16.70;5.70;;;16.40;96.50;;;;;;5051873;28;20055;-68
2021/04/23 08:49:36;;;;;;;19.73;6.05;;;16.90;93.10;;;;;;5054577;28;20547;-69
2021/04/23 08:52:04;;;;;;;14.88;6.18;;;17.70;91.40;;;;;;5054297;28;20052;-69
2021/04/23 08:54:31;;;;;;;14.25;5.25;;;18.30;88.00;;;;;;5053347;28;20056;-69
2021/04/23 08:56:57;;;;;;;20.38;5.88;;;19.10;83.70;;;;;;5056303;28;20048;-68
2021/04/23 08:59:24;;;;;;;14.52;5.60;;;20.00;77.20;;;;;;5052683;28;20555;-69
2021/04/23 09:01:51;;;;;;;13.55;5.80;;;19.70;75.30;;;;;;5050943;28;20063;-69
2021/04/23 09:04:18;;;;;;;18.00;5.50;;;20.40;72.10;;;;;;5052326;28;20512;-69
2021/04/23 09:07:00;;;;;;;16.38;5.47;;;21.30;69.80;;;;;;5051285;28;20074;-69
2021/04/23 09:09:34;;;;;;;16.75;6.28;;;22.00;65.30;;;;;;5054396;28;20048;-69
2021/04/23 09:12:17;;;;;;;18.40;6.38;;;22.00;62.00;;;;;;5054709;28;20056;-69
2021/04/23 09:14:46;;;;;;;14.20;6.03;;;22.20;62.30;;;;;;5054827;28;20665;-71
2021/04/23 09:17:17;;;;;;;19.77;5.93;;;22.70;60.20;;;;;;5053153;28;20129;-69
2021/04/23 09:19:44;;;;;;;14.80;6.72;;;23.20;58.50;;;;;;5055898;28;20044;-73
2021/04/23 09:22:21;;;;;;;16.77;7.03;;;23.40;56.90;;;;;;5039475;28;20056;-68
2021/04/23 09:24:55;;;;;;;13.55;6.50;;;23.50;57.20;;;;;;5042850;28;20044;-69
2021/04/23 09:27:24;;;;;;;11.95;4.93;;;23.50;55.90;;;;;;5047210;28;20052;-69
2021/04/23 09:29:52;;;;;;;12.27;5.20;;;22.80;54.00;;;;;;5051426;28;20055;-69
2021/04/23 09:32:20;;;;;;;11.57;5.50;;;22.60;53.80;;;;;;5050379;28;20048;-68
2021/04/23 09:34:48;;;;;;;9.80;4.93;;;21.90;52.40;;;;;;5050786;28;20045;-68
2021/04/23 09:37:16;;;;;;;12.15;4.65;;;21.90;54.30;;;;;;5048696;28;20114;-69
2021/04/23 09:39:42;;;;;;;10.05;4.95;;;22.40;53.90;;;;;;5048230;28;20052;-69
2021/04/23 09:42:11;;;;;;;16.55;5.25;;;23.10;52.80;;;;;;5049488;28;20059;-69
2021/04/23 09:44:40;;;;;;;11.55;5.25;;;23.70;52.80;;;;;;5049160;28;20060;-69
2021/04/23 09:47:10;;;;;;;9.90;4.97;;;23.40;51.90;;;;;;5049062;28;20052;-65
2021/04/23 09:49:38;;;;;;;13.70;5.20;;;23.80;51.70;;;;;;5050709;28;21271;-65
2021/04/23 09:52:09;;;;;;;16.45;6.10;;;23.80;50.30;;;;;;5049089;28;20143;-67
2021/04/23 09:54:37;;;;;;;12.63;5.90;;;23.30;49.50;;;;;;5047921;28;20406;-67
2021/04/23 09:57:13;;;;;;;10.20;5.45;;;21.80;51.40;;;;;;5047953;28;20052;-67
2021/04/23 09:59:48;;;;;;;10.65;4.97;;;22.30;51.70;;;;;;5047074;28;20059;-69
2021/04/23 10:02:16;;;;;;;12.18;5.40;;;22.70;51.70;;;;;;5046721;28;20052;-67
2021/04/23 10:04:43;;;;;;;12.55;5.10;;;23.20;50.00;;;;;;5047474;28;20053;-68
2021/04/23 10:07:19;;;;;;;15.35;4.70;;;23.60;50.20;;;;;;5049299;28;20747;-68
2021/04/23 10:10:00;;;;;;;10.55;5.00;;;22.00;48.20;;;;;;5048385;28;20052;-65
2021/04/23 10:12:41;;;;;;;9.98;4.95;;;21.70;49.50;;;;;;5040476;28;20052;-68
2021/04/23 10:15:14;;;;;;;8.77;3.28;;;21.20;48.50;;;;;;5040084;28;20485;-66
2021/04/23 10:17:42;;;;;;;9.00;3.42;;;20.10;46.40;;;;;;5038864;28;20048;-67
2021/04/23 10:20:11;;;;;;;10.13;3.20;;;20.30;46.90;;;;;;5041650;28;20052;-67
2021/04/23 10:22:38;;;;;;;9.68;3.50;;;21.50;46.30;;;;;;5043418;28;20059;-67
2021/04/23 10:25:07;;;;;;;8.70;3.60;;;20.60;44.80;;;;;;5039009;28;20052;-68
2021/04/23 10:27:35;;;;;;;13.27;4.63;;;21.20;46.70;;;;;;5036382;28;20131;-69
2021/04/23 10:30:06;;;;;;;10.15;4.53;;;22.10;49.20;;;;;;5044836;28;20043;-70
2021/04/23 10:32:33;;;;;;;11.73;4.70;;;23.00;49.10;;;;;;5051332;28;21595;-70
2021/04/23 10:35:00;;;;;;;15.73;4.45;;;23.20;49.20;;;;;;5054136;28;20125;-70
2021/04/23 10:37:27;;;;;;;10.05;4.40;;;23.60;49.20;;;;;;5044283;28;20056;-71
2021/04/23 10:39:54;;;;;;;12.40;4.38;;;24.20;47.80;;;;;;5047210;28;20055;-70
2021/04/23 10:42:50;;;;;;;10.70;4.50;;;23.00;46.70;;;;;;5048086;28;20189;-70
2021/04/23 10:45:39;;;;;;;17.33;5.70;;;23.00;47.80;;;;;;5047157;28;20049;-70
2021/04/23 10:48:32;;;;;;;13.20;4.32;;;22.80;46.40;;;;;;5047461;28;20044;-71
2021/04/23 10:51:01;;;;;;;11.07;4.78;;;23.30;47.80;;;;;;5045115;28;20048;-71
2021/04/23 10:53:43;;;;;;;11.90;4.13;;;24.00;47.70;;;;;;5043254;28;20148;-71
2021/04/23 10:56:26;;;;;;;10.25;4.40;;;23.60;45.10;;;;;;5046849;28;21460;-71
2021/04/23 10:58:55;;;;;;;7.93;3.90;;;22.00;46.20;;;;;;5039371;28;20056;-70
2021/04/23 11:01:25;;;;;;;10.63;4.55;;;23.10;46.80;;;;;;5037262;28;20067;-71
2021/04/23 11:04:04;;;;;;;8.05;4.10;;;23.80;46.10;;;;;;5045791;28;20059;-71
2021/04/23 11:06:34;;;;;;;13.15;4.25;;;23.50;46.30;;;;;;5046902;28;20057;-71
2021/04/23 11:09:18;;;;;;;10.27;4.75;;;22.60;46.60;;;;;;5047083;28;20079;-70
2021/04/23 11:12:12;;;;;;;8.50;4.15;;;23.10;46.80;;;;;;5048365;28;20048;-71
2021/04/23 11:14:40;;;;;;;8.68;4.03;;;24.20;46.80;;;;;;5041514;28;20105;-71
2021/04/23 11:17:34;;;;;;;10.13;4.05;;;24.70;45.70;;;;;;5033758;28;20086;-71
2021/04/23 11:20:21;;;;;;;8.23;3.70;;;25.00;45.30;;;;;;5002698;28;20466;-71
2021/04/23 11:22:59;;;;;;;8.38;3.88;;;24.90;45.00;;;;;;5045551;28;20415;-71
2021/04/23 11:25:28;;;;;;;8.40;4.18;;;24.10;44.50;;;;;;5045559;28;20051;-71
2021/04/23 11:28:08;;;;;;;7.35;3.45;;;24.30;43.50;;;;;;5051686;28;20052;-71
2021/04/23 11:31:07;;;;;;;9.20;3.92;;;23.40;44.30;;;;;;5050382;28;20091;-71
2021/04/23 11:33:55;;;;;;;11.32;3.50;;;22.80;44.50;;;;;;5057228;28;20067;-72
2021/04/23 11:36:30;;;;;;;10.23;3.55;;;23.60;45.10;;;;;;5051442;28;20059;-71
2021/04/23 11:39:01;;;;;;;7.85;3.88;;;23.60;44.60;;;;;;5055568;28;20063;-71
2021/04/23 11:41:28;;;;;;;9.48;3.83;;;23.90;44.40;;;;;;5055012;28;20052;-71
2021/04/23 11:43:55;;;;;;;9.80;3.60;;;24.10;42.60;;;;;;5053642;28;20052;-71
2021/04/23 11:46:50;;;;;;;7.13;3.20;;;23.10;43.80;;;;;;5056064;28;20051;-71
2021/04/23 11:49:17;;;;;;;10.93;3.75;;;22.90;43.10;;;;;;5057106;28;20059;-71
2021/04/23 11:52:00;;;;;;;8.75;3.70;;;22.80;44.60;;;;;;5055342;28;20780;-71
2021/04/23 11:54:34;;;;;;;9.20;3.47;;;23.00;44.00;;;;;;5053792;28;20102;-71
2021/04/23 11:57:02;;;;;;;9.10;3.42;;;23.40;42.60;;;;;;5055054;28;20076;-71
2021/04/23 11:59:30;;;;;;;8.00;3.55;;;23.10;42.60;;;;;;5056334;28;20064;-71
2021/04/23 12:01:57;;;;;;;11.45;2.92;;;24.10;43.60;;;;;;5051850;28;20052;-71
2021/04/23 12:04:46;;;;;;;11.40;3.67;;;24.10;43.30;;;;;;5053997;28;20060;-71
2021/04/23 12:07:16;;;;;;;7.05;3.58;;;24.60;43.90;;;;;;5055312;28;20051;-71
2021/04/23 12:09:43;;;;;;;10.88;3.17;;;25.30;43.50;;;;;;5055425;28;20048;-71
2021/04/23 12:12:12;;;;;;;10.82;4.20;;;25.80;42.90;;;;;;5052998;28;20056;-71
2021/04/23 12:14:47;;;;;;;10.55;3.78;;;25.60;40.90;;;;;;5054670;28;20047;-71
2021/04/23 12:17:16;;;;;;;15.75;4.30;;;25.40;41.80;;;;;;5051492;28;20056;-71
2021/04/23 12:19:43;;;;;;;9.30;4.25;;;25.30;42.70;;;;;;5055458;28;20076;-72
2021/04/23 12:22:09;;;;;;;11.85;4.20;;;24.60;42.00;;;;;;5053755;28;20075;-71
2021/04/23 12:24:36;;;;;;;9.45;3.83;;;23.20;41.60;;;;;;5053139;28;20055;-72
2021/04/23 12:27:03;;;;;;;9.13;3.60;;;24.20;43.10;;;;;;5055814;28;20059;-72
2021/04/23 12:29:30;;;;;;;7.32;3.60;;;24.70;43.70;;;;;;5054117;28;20101;-71
2021/04/23 12:31:56;;;;;;;10.27;3.90;;;23.60;41.20;;;;;;5053797;28;20048;-71
2021/04/23 12:34:24;;;;;;;11.65;3.85;;;23.80;41.40;;;;;;5053221;28;20523;-72
2021/04/23 12:36:52;;;;;;;11.48;3.70;;;23.10;41.10;;;;;;5050312;28;20436;-72
2021/04/23 12:39:22;;;;;;;10.85;3.28;;;23.30;42.30;;;;;;5053186;28;20060;-72
2021/04/23 12:41:50;;;;;;;10.23;3.33;;;24.30;41.90;;;;;;5050670;28;20094;-72
2021/04/23 12:44:18;;;;;;;6.97;2.70;;;23.90;41.00;;;;;;5050173;28;20147;-71
2021/04/23 12:46:46;;;;;;;11.57;3.25;;;23.40;41.00;;;;;;5049418;28;20048;-72
2021/04/23 12:49:16;;;;;;;6.75;3.05;;;23.80;40.30;;;;;;5049814;28;20044;-72
2021/04/23 12:51:49;;;;;;;8.13;2.97;;;23.50;40.60;;;;;;5050065;28;20072;-72
2021/04/23 12:54:18;;;;;;;5.82;3.15;;;24.50;40.90;;;;;;5043484;28;20052;-72
2021/04/23 12:56:54;;;;;;;7.18;2.90;;;24.80;39.90;;;;;;5043298;28;20531;-72
2021/04/23 12:59:38;;;;;;;7.00;2.83;;;24.80;40.50;;;;;;5044824;28;20098;-72